createdAt,value
2018-06-24T00:00:44.843Z,4.30
2018-06-24T00:03:13.302Z,3.70
2018-06-24T00:05:41.696Z,3.93
2018-06-24T00:08:10.109Z,5.20
2018-06-24T00:10:38.620Z,4.67
2018-06-24T00:13:07.085Z,4.80
2018-06-24T00:15:35.517Z,4.83
2018-06-24T00:18:04.030Z,4.77
2018-06-24T00:20:32.451Z,4.40
2018-06-24T00:23:01.257Z,5.00
2018-06-24T00:25:29.672Z,4.90
2018-06-24T00:27:58.436Z,4.50
2018-06-24T00:30:27.141Z,4.43
2018-06-24T00:32:55.610Z,4.30
2018-06-24T00:35:24.068Z,4.03
2018-06-24T00:37:54.432Z,4.10
2018-06-24T00:40:22.812Z,4.47
2018-06-24T00:42:51.221Z,4.30
2018-06-24T00:45:19.615Z,3.80
2018-06-24T00:47:48.163Z,4.13
2018-06-24T00:50:16.580Z,5.27
2018-06-24T00:52:44.981Z,4.10
2018-06-24T00:55:13.397Z,4.80
2018-06-24T00:57:41.833Z,5.57
2018-06-24T01:00:13.009Z,5.00
2018-06-24T01:02:41.595Z,4.87
2018-06-24T01:05:10.903Z,5.53
2018-06-24T01:07:39.496Z,8.00
2018-06-24T01:10:07.998Z,6.90
2018-06-24T01:12:36.427Z,6.00
2018-06-24T01:15:04.963Z,8.13
2018-06-24T01:17:34.414Z,6.23
2018-06-24T01:20:03.863Z,5.40
2018-06-24T01:22:32.273Z,5.90
2018-06-24T01:25:01.132Z,6.60
2018-06-24T01:27:30.218Z,5.70
2018-06-24T01:29:58.657Z,5.87
2018-06-24T01:32:27.430Z,6.17
2018-06-24T01:34:56.900Z,5.73
2018-06-24T01:37:25.294Z,5.77
2018-06-24T01:39:53.696Z,5.97
2018-06-24T01:42:22.151Z,5.20
2018-06-24T01:44:50.886Z,5.57
2018-06-24T01:47:19.248Z,4.80
2018-06-24T01:49:48.734Z,5.67
2018-06-24T01:52:17.176Z,5.17
2018-06-24T01:54:45.616Z,5.63
2018-06-24T01:57:14.544Z,6.13
2018-06-24T01:59:42.964Z,5.97
2018-06-24T02:02:11.393Z,7.03
2018-06-24T02:04:39.828Z,6.43
2018-06-24T02:07:08.240Z,7.07
2018-06-24T02:09:36.654Z,5.90
2018-06-24T02:12:05.852Z,6.10
2018-06-24T02:14:34.261Z,6.57
2018-06-24T02:17:02.669Z,7.53
2018-06-24T02:19:31.072Z,6.70
2018-06-24T02:21:59.808Z,6.53
2018-06-24T02:24:29.342Z,5.77
2018-06-24T02:26:57.750Z,6.30
2018-06-24T02:29:26.358Z,7.83
2018-06-24T02:31:54.844Z,6.70
2018-06-24T02:34:23.265Z,5.90
2018-06-24T02:36:52.435Z,7.40
2018-06-24T02:39:21.189Z,6.50
2018-06-24T02:41:49.833Z,6.17
2018-06-24T02:44:18.246Z,6.30
2018-06-24T02:46:46.691Z,5.90
2018-06-24T02:49:15.133Z,6.10
2018-06-24T02:51:43.520Z,6.07
2018-06-24T02:54:11.940Z,6.20
2018-06-24T02:56:41.522Z,6.40
2018-06-24T02:59:10.298Z,7.33
2018-06-24T03:01:38.933Z,6.20
2018-06-24T03:04:07.373Z,7.00
2018-06-24T03:06:36.085Z,6.30
2018-06-24T03:09:08.434Z,6.00
2018-06-24T03:11:36.861Z,6.57
2018-06-24T03:14:05.305Z,6.70
2018-06-24T03:16:34.048Z,6.00
2018-06-24T03:19:02.448Z,5.97
2018-06-24T03:21:30.880Z,7.10
2018-06-24T03:23:59.314Z,7.03
2018-06-24T03:26:27.715Z,7.30
2018-06-24T03:28:56.192Z,6.20
2018-06-24T03:31:24.650Z,7.40
2018-06-24T03:33:53.430Z,8.50
2018-06-24T03:36:21.832Z,9.33
2018-06-24T03:38:50.281Z,10.37
2018-06-24T03:41:18.861Z,10.27
2018-06-24T03:43:47.375Z,8.03
2018-06-24T03:46:15.791Z,7.90
2018-06-24T03:48:44.157Z,6.70
2018-06-24T03:51:12.544Z,7.50
2018-06-24T03:53:40.948Z,7.67
2018-06-24T03:56:09.348Z,7.20
2018-06-24T03:58:37.823Z,6.70
2018-06-24T04:01:06.417Z,7.13
2018-06-24T04:03:34.812Z,6.43
2018-06-24T04:06:03.243Z,7.50
2018-06-24T04:08:31.605Z,7.20
2018-06-24T04:11:00.012Z,7.07
2018-06-24T04:13:28.473Z,7.20
2018-06-24T04:16:06.724Z,7.53
2018-06-24T04:18:48.429Z,7.53
2018-06-24T04:21:16.889Z,7.83
2018-06-24T04:23:45.827Z,7.73
2018-06-24T04:26:14.247Z,6.97
2018-06-24T04:28:42.652Z,7.30
2018-06-24T04:31:11.797Z,8.07
2018-06-24T04:33:40.790Z,7.33
2018-06-24T04:36:09.239Z,7.97
2018-06-24T04:38:37.748Z,8.17
2018-06-24T04:41:06.215Z,8.40
2018-06-24T04:43:34.608Z,7.23
2018-06-24T04:46:03.057Z,8.33
2018-06-24T04:48:31.469Z,7.63
2018-06-24T04:51:00.735Z,7.03
2018-06-24T04:53:29.140Z,8.20
2018-06-24T04:55:57.604Z,6.80
2018-06-24T04:58:26.392Z,7.63
2018-06-24T05:00:55.762Z,7.17
2018-06-24T05:03:24.185Z,7.10
2018-06-24T05:05:52.708Z,7.63
2018-06-24T05:08:21.143Z,7.17
2018-06-24T05:10:49.580Z,7.80
2018-06-24T05:13:18.745Z,7.53
2018-06-24T05:15:47.135Z,6.93
2018-06-24T05:18:15.565Z,7.60
2018-06-24T05:20:43.951Z,7.60
2018-06-24T05:23:12.873Z,7.13
2018-06-24T05:25:41.314Z,6.20
2018-06-24T05:28:09.988Z,5.87
2018-06-24T05:30:38.371Z,5.97
2018-06-24T05:33:06.812Z,6.63
2018-06-24T05:35:35.236Z,5.70
2018-06-24T05:38:03.760Z,6.70
2018-06-24T05:40:32.240Z,6.20
2018-06-24T05:43:00.709Z,6.83
2018-06-24T05:45:29.060Z,5.80
2018-06-24T05:47:57.473Z,6.70
2018-06-24T05:50:25.860Z,6.17
2018-06-24T05:52:54.916Z,6.37
2018-06-24T05:55:24.109Z,6.03
2018-06-24T05:57:52.487Z,5.43
2018-06-24T06:00:20.912Z,7.27
2018-06-24T06:02:49.820Z,7.30
2018-06-24T06:05:18.195Z,5.40
2018-06-24T06:07:46.623Z,6.00
2018-06-24T06:10:15.110Z,5.43
2018-06-24T06:12:43.521Z,6.23
2018-06-24T06:15:11.984Z,5.80
2018-06-24T06:17:40.410Z,5.30
2018-06-24T06:20:09.608Z,5.20
2018-06-24T06:22:38.036Z,5.67
2018-06-24T06:25:06.984Z,4.60
2018-06-24T06:27:35.505Z,4.50
2018-06-24T06:30:04.142Z,4.83
2018-06-24T06:32:32.591Z,4.50
2018-06-24T06:35:01.017Z,4.53
2018-06-24T06:37:29.444Z,4.77
2018-06-24T06:39:58.039Z,4.80
2018-06-24T06:42:26.469Z,5.20
2018-06-24T06:44:54.968Z,4.73
2018-06-24T06:47:23.292Z,4.90
2018-06-24T06:49:51.675Z,5.47
2018-06-24T06:52:20.060Z,5.43
2018-06-24T06:54:48.459Z,4.57
2018-06-24T06:57:16.856Z,5.47
2018-06-24T06:59:45.283Z,5.27
2018-06-24T07:02:13.664Z,5.23
2018-06-24T07:04:42.113Z,5.53
2018-06-24T07:07:11.123Z,5.30
2018-06-24T07:09:39.566Z,5.10
2018-06-24T07:12:07.992Z,6.27
2018-06-24T07:14:36.453Z,5.63
2018-06-24T07:17:05.091Z,5.80
2018-06-24T07:19:33.492Z,5.27
2018-06-24T07:22:02.071Z,5.07
2018-06-24T07:24:30.408Z,6.60
2018-06-24T07:26:58.952Z,7.40
2018-06-24T07:29:27.341Z,5.37
2018-06-24T07:31:55.765Z,5.70
2018-06-24T07:34:24.242Z,6.00
2018-06-24T07:36:52.636Z,5.73
2018-06-24T07:39:21.058Z,6.00
2018-06-24T07:41:49.500Z,5.60
2018-06-24T07:44:17.946Z,4.70
2018-06-24T07:46:46.687Z,4.43
2018-06-24T07:49:15.121Z,6.90
2018-06-24T07:51:43.602Z,10.60
2018-06-24T07:54:12.013Z,5.50
2018-06-24T07:56:40.392Z,5.00
2018-06-24T07:59:09.657Z,5.63
2018-06-24T08:01:38.193Z,6.17
2018-06-24T08:04:06.627Z,8.97
2018-06-24T08:06:35.084Z,6.13
2018-06-24T08:09:03.712Z,6.50
2018-06-24T08:11:32.163Z,5.87
2018-06-24T08:14:00.655Z,5.83
2018-06-24T08:16:30.063Z,6.77
2018-06-24T08:18:59.236Z,5.93
2018-06-24T08:21:27.665Z,6.00
2018-06-24T08:23:56.356Z,6.10
2018-06-24T08:26:24.809Z,5.57
2018-06-24T08:28:53.224Z,5.37
2018-06-24T08:31:21.696Z,5.17
2018-06-24T08:33:50.104Z,6.17
2018-06-24T08:36:18.756Z,6.07
2018-06-24T08:38:47.253Z,6.33
2018-06-24T08:41:15.632Z,5.47
2018-06-24T08:43:44.074Z,5.77
2018-06-24T08:46:12.467Z,5.40
2018-06-24T08:48:41.341Z,7.43
2018-06-24T08:51:09.769Z,5.87
2018-06-24T08:53:38.180Z,5.17
2018-06-24T08:56:06.589Z,8.87
2018-06-24T08:58:35.113Z,6.53
2018-06-24T09:01:03.525Z,6.50
2018-06-24T09:03:32.247Z,5.90
2018-06-24T09:06:00.870Z,4.90
2018-06-24T09:08:29.294Z,5.77
2018-06-24T09:10:57.840Z,5.53
2018-06-24T09:13:26.269Z,6.63
2018-06-24T09:15:54.774Z,6.90
2018-06-24T09:18:23.198Z,6.50
2018-06-24T09:20:51.724Z,6.67
2018-06-24T09:23:20.246Z,6.13
2018-06-24T09:25:48.708Z,7.40
2018-06-24T09:28:17.167Z,7.07
2018-06-24T09:30:45.610Z,5.40
2018-06-24T09:33:14.784Z,6.17
2018-06-24T09:35:43.205Z,6.23
2018-06-24T09:38:11.653Z,5.80
2018-06-24T09:40:40.095Z,5.37
2018-06-24T09:43:08.492Z,5.47
2018-06-24T09:45:36.921Z,4.60
2018-06-24T09:48:05.701Z,4.30
2018-06-24T09:50:34.129Z,4.93
2018-06-24T09:53:03.062Z,5.23
2018-06-24T09:55:31.568Z,4.03
2018-06-24T09:57:59.973Z,5.80
2018-06-24T10:00:28.384Z,4.17
2018-06-24T10:02:56.820Z,5.07
2018-06-24T10:05:25.215Z,6.00
2018-06-24T10:07:53.646Z,6.53
2018-06-24T10:10:22.079Z,6.83
2018-06-24T10:12:50.507Z,8.53
2018-06-24T10:15:18.924Z,9.20
2018-06-24T10:17:47.348Z,8.50
2018-06-24T10:20:15.773Z,7.67
2018-06-24T10:22:44.173Z,7.07
2018-06-24T10:25:12.691Z,5.40
2018-06-24T10:27:41.149Z,6.70
2018-06-24T10:30:09.519Z,5.40
2018-06-24T10:32:37.938Z,4.70
2018-06-24T10:35:06.381Z,4.17
2018-06-24T10:37:34.852Z,4.03
2018-06-24T10:40:03.311Z,3.70
2018-06-24T10:42:32.361Z,3.70
2018-06-24T10:45:00.815Z,3.40
2018-06-24T10:47:29.227Z,3.33
2018-06-24T10:49:57.670Z,3.70
2018-06-24T10:52:26.047Z,3.50
2018-06-24T10:54:54.445Z,2.90
2018-06-24T10:57:22.834Z,2.70
2018-06-24T10:59:51.672Z,2.97
2018-06-24T11:02:20.174Z,3.20
2018-06-24T11:04:48.548Z,3.70
2018-06-24T11:07:16.913Z,3.53
2018-06-24T11:09:45.366Z,2.83
2018-06-24T11:12:13.913Z,2.30
2018-06-24T11:14:42.359Z,2.23
2018-06-24T11:17:11.176Z,2.63
2018-06-24T11:19:41.875Z,2.50
2018-06-24T11:22:11.837Z,2.60
2018-06-24T11:24:40.354Z,2.47
2018-06-24T11:27:08.753Z,2.53
2018-06-24T11:29:37.261Z,2.40
2018-06-24T11:32:06.768Z,2.73
2018-06-24T11:34:35.194Z,2.33
2018-06-24T11:37:03.625Z,2.57
2018-06-24T11:39:32.064Z,2.43
2018-06-24T11:42:00.725Z,1.87
2018-06-24T11:44:29.190Z,4.40
2018-06-24T11:46:58.230Z,4.10
2018-06-24T11:49:26.616Z,2.63
2018-06-24T11:51:55.028Z,2.70
2018-06-24T11:54:23.447Z,2.70
2018-06-24T11:56:52.310Z,2.50
2018-06-24T11:59:20.698Z,2.30
2018-06-24T12:01:49.183Z,2.93
2018-06-24T12:04:17.643Z,2.40
2018-06-24T12:06:46.801Z,3.10
2018-06-24T12:09:15.217Z,2.83
2018-06-24T12:11:44.525Z,2.80
2018-06-24T12:14:12.989Z,2.90
2018-06-24T12:16:41.412Z,2.83
2018-06-24T12:19:09.913Z,2.10
2018-06-24T12:21:38.343Z,2.53
2018-06-24T12:24:07.038Z,8.60
2018-06-24T12:26:35.448Z,2.70
2018-06-24T12:29:03.989Z,2.40
2018-06-24T12:31:34.246Z,2.57
2018-06-24T12:34:03.342Z,2.43
2018-06-24T12:36:41.062Z,2.50
2018-06-24T12:39:14.425Z,2.80
2018-06-24T12:41:43.093Z,2.17
2018-06-24T12:44:11.592Z,2.40
2018-06-24T12:46:40.013Z,2.63
2018-06-24T12:49:08.986Z,2.20
2018-06-24T12:51:38.547Z,2.10
2018-06-24T12:54:08.345Z,2.17
2018-06-24T12:56:37.701Z,2.27
2018-06-24T12:59:06.384Z,2.40
2018-06-24T13:01:35.647Z,2.10
2018-06-24T13:04:04.096Z,2.80
2018-06-24T13:06:34.175Z,3.47
2018-06-24T13:09:03.401Z,2.77
2018-06-24T13:11:31.841Z,3.23
2018-06-24T13:14:00.947Z,2.87
2018-06-24T13:16:29.338Z,3.00
2018-06-24T13:18:57.717Z,2.57
2018-06-24T13:21:26.184Z,2.63
2018-06-24T13:23:54.988Z,3.10
2018-06-24T13:26:23.508Z,2.90
2018-06-24T13:28:51.924Z,2.53
2018-06-24T13:31:20.359Z,2.90
2018-06-24T13:33:48.733Z,2.30
2018-06-24T13:36:17.153Z,3.00
2018-06-24T13:38:46.173Z,2.77
2018-06-24T13:41:14.830Z,3.10
2018-06-24T13:43:44.600Z,4.30
2018-06-24T13:46:13.122Z,3.53
2018-06-24T13:48:41.628Z,4.33
2018-06-24T13:51:10.289Z,3.23
2018-06-24T13:53:39.623Z,3.80
2018-06-24T13:56:08.636Z,3.20
2018-06-24T13:58:37.132Z,3.40
2018-06-24T14:01:05.641Z,3.40
2018-06-24T14:03:34.781Z,3.57
2018-06-24T14:06:03.542Z,3.67
2018-06-24T14:08:32.570Z,4.27
2018-06-24T14:11:01.016Z,4.30
2018-06-24T14:13:29.732Z,4.40
2018-06-24T14:15:58.269Z,3.10
2018-06-24T14:18:26.660Z,3.70
2018-06-24T14:20:55.100Z,3.17
2018-06-24T14:23:24.085Z,3.70
2018-06-24T14:25:52.449Z,3.47
2018-06-24T14:28:20.829Z,3.07
2018-06-24T14:30:49.430Z,3.27
2018-06-24T14:33:17.809Z,3.80
2018-06-24T14:35:46.232Z,3.63
2018-06-24T14:38:14.761Z,3.10
2018-06-24T14:40:43.224Z,3.60
2018-06-24T14:43:11.749Z,3.07
2018-06-24T14:45:41.293Z,3.53
2018-06-24T14:48:09.736Z,3.60
2018-06-24T14:50:38.219Z,3.83
2018-06-24T14:53:06.683Z,3.40
2018-06-24T14:55:35.151Z,3.87
2018-06-24T14:58:03.787Z,2.90
2018-06-24T15:00:32.344Z,3.60
2018-06-24T15:03:00.869Z,3.80
2018-06-24T15:05:29.289Z,4.50
2018-06-24T15:07:57.747Z,3.60
2018-06-24T15:27:25.062Z,8.90
2018-06-24T15:29:53.477Z,3.40
2018-06-24T15:32:21.911Z,3.20
2018-06-24T15:34:50.462Z,3.60
2018-06-24T15:37:18.945Z,2.93
2018-06-24T15:39:48.148Z,3.10
2018-06-24T15:42:16.708Z,3.13
2018-06-24T15:44:45.690Z,3.23
2018-06-24T15:47:14.990Z,4.07
2018-06-24T15:49:43.424Z,2.93
2018-06-24T15:52:11.877Z,3.37
2018-06-24T15:54:40.932Z,5.43
2018-06-24T15:57:09.343Z,7.50
2018-06-24T15:59:37.925Z,7.20
2018-06-24T16:02:07.354Z,2.60
2018-06-24T16:04:35.815Z,4.30
2018-06-24T16:07:04.235Z,2.70
2018-06-24T16:09:32.745Z,2.93
2018-06-24T16:12:02.713Z,3.10
2018-06-24T16:14:31.187Z,2.83
2018-06-24T16:16:59.891Z,3.40
2018-06-24T16:19:28.328Z,3.30
2018-06-24T16:21:56.756Z,3.20
2018-06-24T16:24:25.295Z,13.30
2018-06-24T16:26:53.912Z,3.20
2018-06-24T16:29:22.300Z,3.33
2018-06-24T16:31:50.746Z,3.23
2018-06-24T16:34:19.174Z,4.00
2018-06-24T16:36:48.463Z,3.53
2018-06-24T16:39:17.084Z,2.80
2018-06-24T16:41:45.600Z,3.00
2018-06-24T16:44:14.035Z,7.77
2018-06-24T16:46:42.496Z,14.20
2018-06-24T16:49:10.980Z,4.70
2018-06-24T16:51:39.984Z,2.93
2018-06-24T16:54:08.511Z,8.20
2018-06-24T16:56:36.973Z,3.73
2018-06-24T16:59:05.369Z,3.90
2018-06-24T17:01:34.268Z,3.77
2018-06-24T17:04:02.696Z,3.63
2018-06-24T17:06:31.094Z,4.00
2018-06-24T17:08:59.637Z,7.37
2018-06-24T17:11:28.055Z,5.37
2018-06-24T17:13:56.740Z,4.37
2018-06-24T17:16:25.852Z,4.13
2018-06-24T17:18:54.294Z,4.90
2018-06-24T17:21:22.867Z,4.00
2018-06-24T17:23:51.612Z,3.70
2018-06-24T17:26:20.075Z,3.87
2018-06-24T17:28:48.493Z,4.20
2018-06-24T17:31:17.020Z,3.63
2018-06-24T17:33:45.442Z,9.70
2018-06-24T17:36:13.894Z,5.03
2018-06-24T17:38:42.312Z,5.20
2018-06-24T17:41:10.699Z,3.40
2018-06-24T17:43:39.127Z,3.97
2018-06-24T17:46:07.563Z,3.20
2018-06-24T17:48:36.029Z,3.67
2018-06-24T17:51:04.528Z,3.60
2018-06-24T17:53:33.150Z,4.03
2018-06-24T17:56:02.529Z,3.50
2018-06-24T17:58:30.973Z,3.50
2018-06-24T18:00:59.699Z,3.70
2018-06-24T18:03:28.088Z,2.87
2018-06-24T18:05:56.568Z,2.97
2018-06-24T18:08:25.001Z,3.10
2018-06-24T18:10:53.508Z,3.93
2018-06-24T18:13:21.940Z,2.70
2018-06-24T18:15:50.485Z,3.13
2018-06-24T18:18:19.037Z,4.43
2018-06-24T18:20:47.502Z,6.87
2018-06-24T18:23:15.992Z,3.20
2018-06-24T18:25:44.381Z,3.83
2018-06-24T18:28:13.551Z,3.10
2018-06-24T18:30:42.893Z,3.80
2018-06-24T18:33:11.486Z,3.30
2018-06-24T18:35:39.848Z,3.40
2018-06-24T18:38:08.293Z,3.13
2018-06-24T18:40:37.745Z,3.57
2018-06-24T18:43:06.683Z,4.20
2018-06-24T18:45:35.117Z,3.90
2018-06-24T18:48:03.578Z,3.63
2018-06-24T18:50:32.052Z,3.47
2018-06-24T18:53:00.499Z,3.30
2018-06-24T18:55:29.339Z,3.50
2018-06-24T18:57:57.823Z,3.80
2018-06-24T19:00:26.254Z,3.23
2018-06-24T19:02:54.816Z,3.57
2018-06-24T19:05:24.040Z,4.03
2018-06-24T19:07:52.568Z,3.63
2018-06-24T19:10:21.157Z,4.00
2018-06-24T19:12:49.637Z,3.77
2018-06-24T19:15:18.088Z,5.13
2018-06-24T19:17:46.517Z,4.00
2018-06-24T19:20:14.974Z,3.47
2018-06-24T19:22:43.348Z,3.10
2018-06-24T19:25:11.802Z,3.20
2018-06-24T19:27:40.214Z,3.50
2018-06-24T19:30:08.662Z,3.10
2018-06-24T19:32:37.667Z,3.40
2018-06-24T19:35:06.126Z,3.97
2018-06-24T19:37:34.541Z,3.70
2018-06-24T19:40:03.916Z,3.90
2018-06-24T19:42:32.357Z,4.10
2018-06-24T19:45:00.793Z,3.30
2018-06-24T19:47:29.672Z,4.60
2018-06-24T19:49:58.132Z,4.37
2018-06-24T19:52:27.526Z,5.47
2018-06-24T19:54:56.831Z,4.47
2018-06-24T19:57:25.804Z,3.83
2018-06-24T19:59:54.224Z,5.47
2018-06-24T20:02:22.833Z,15.43
2018-06-24T20:04:51.243Z,5.03
2018-06-24T20:07:19.951Z,4.37
2018-06-24T20:09:48.469Z,4.50
2018-06-24T20:12:18.668Z,4.60
2018-06-24T20:14:47.681Z,5.13
2018-06-24T20:17:16.702Z,4.20
2018-06-24T20:19:45.138Z,4.57
2018-06-24T20:22:13.660Z,4.40
2018-06-24T20:24:42.160Z,6.70
2018-06-24T20:27:11.054Z,4.17
2018-06-24T20:29:39.713Z,4.70
2018-06-24T20:32:08.229Z,4.23
2018-06-24T20:34:37.057Z,5.00
2018-06-24T20:37:05.584Z,5.00
2018-06-24T20:39:33.977Z,6.10
2018-06-24T20:42:02.430Z,6.30
2018-06-24T20:44:30.813Z,5.20
2018-06-24T20:46:59.392Z,4.80
2018-06-24T20:49:27.817Z,4.30
2018-06-24T20:51:56.470Z,5.53
2018-06-24T20:54:24.882Z,4.70
2018-06-24T20:56:53.293Z,5.40
2018-06-24T20:59:21.774Z,5.07
2018-06-24T21:01:50.295Z,5.47
2018-06-24T21:04:18.833Z,6.10
2018-06-24T21:06:47.400Z,5.80
2018-06-24T21:09:16.775Z,5.07
2018-06-24T21:11:45.242Z,4.30
2018-06-24T21:14:13.922Z,4.70
2018-06-24T21:16:43.033Z,5.03
2018-06-24T21:19:11.444Z,5.77
2018-06-24T21:21:40.653Z,7.53
2018-06-24T21:24:09.633Z,5.67
2018-06-24T21:26:38.072Z,5.20
2018-06-24T21:29:06.586Z,5.63
2018-06-24T21:31:35.034Z,6.30
2018-06-24T21:34:04.068Z,5.93
2018-06-24T21:36:32.488Z,6.10
2018-06-24T21:39:00.934Z,7.37
2018-06-24T21:41:29.361Z,6.53
2018-06-24T21:43:57.787Z,9.17
2018-06-24T21:46:26.237Z,6.33
2018-06-24T21:48:54.731Z,6.30
2018-06-24T21:51:23.409Z,6.30
2018-06-24T21:53:52.679Z,6.43
2018-06-24T21:56:21.158Z,6.40
2018-06-24T21:58:50.510Z,7.20
2018-06-24T22:01:18.907Z,6.33
2018-06-24T22:03:47.321Z,6.10
2018-06-24T22:06:15.984Z,5.77
2018-06-24T22:08:44.388Z,7.00
2018-06-24T22:11:12.783Z,5.50
2018-06-24T22:13:41.230Z,4.23
2018-06-24T22:16:09.743Z,4.70
2018-06-24T22:18:38.187Z,4.50
2018-06-24T22:21:07.448Z,3.63
2018-06-24T22:23:35.877Z,3.43
2018-06-24T22:26:04.357Z,3.97
2018-06-24T22:28:32.835Z,3.53
2018-06-24T22:31:02.006Z,3.70
2018-06-24T22:33:30.820Z,3.37
2018-06-24T22:35:59.279Z,3.67
2018-06-24T22:38:27.719Z,4.13
2018-06-24T22:40:56.764Z,4.13
2018-06-24T22:43:25.322Z,3.80
2018-06-24T22:45:53.753Z,4.97
2018-06-24T22:48:22.836Z,6.00
2018-06-24T22:50:51.364Z,6.47
2018-06-24T22:53:19.932Z,6.00
2018-06-24T22:55:48.376Z,7.10
2018-06-24T22:58:16.751Z,6.10
2018-06-24T23:00:45.150Z,6.97
2018-06-24T23:03:13.562Z,7.60
2018-06-24T23:05:41.960Z,8.30
2018-06-24T23:08:10.361Z,7.90
2018-06-24T23:10:38.785Z,9.43
2018-06-24T23:13:07.293Z,8.33
2018-06-24T23:15:36.143Z,8.97
2018-06-24T23:18:04.772Z,8.63
2018-06-24T23:20:33.177Z,8.40
2018-06-24T23:23:01.536Z,9.40
2018-06-24T23:25:29.942Z,9.47
2018-06-24T23:27:58.323Z,9.33
2018-06-24T23:30:26.763Z,9.50
2018-06-24T23:32:55.153Z,8.90
2018-06-24T23:35:24.880Z,10.00
2018-06-24T23:37:53.824Z,8.57
2018-06-24T23:40:22.193Z,10.03
2018-06-24T23:42:51.679Z,8.97
2018-06-24T23:45:20.327Z,9.67
2018-06-24T23:47:48.823Z,9.23
2018-06-24T23:50:17.220Z,9.20
2018-06-24T23:52:45.637Z,9.47
2018-06-24T23:55:14.639Z,9.17
2018-06-24T23:57:43.033Z,9.53
